Time;durP1;ratioP1;P1;durP2;ratioP2;P2;SDS_P1;SDS_P2;PMS_P1;PMS_P2;Temp;Humidity;BMP_temperature;BMP_pressure;BME280_temperature;BME280_humidity;BME280_pressure;Samples;Min_cycle;Max_cycle;Signal;HPM_P1;HPM_P2
2023/07/05 00:01:40;;;;;;;7.82;3.35;;;16.10;99.90;;;;;;5074224;27;20061;-76
2023/07/05 00:04:26;;;;;;;9.38;3.53;;;16.20;99.90;;;;;;5090006;28;20043;-76
2023/07/05 00:07:13;;;;;;;10.05;3.22;;;16.30;99.90;;;;;;5086146;27;20043;-76
2023/07/05 00:09:59;;;;;;;13.35;3.67;;;16.30;99.90;;;;;;5073218;28;20055;-75
2023/07/05 00:12:45;;;;;;;9.93;2.92;;;16.30;99.90;;;;;;5088295;27;20035;-75
2023/07/05 00:15:31;;;;;;;9.20;3.42;;;16.40;99.90;;;;;;5105347;27;20049;-76
2023/07/05 00:18:18;;;;;;;7.95;3.45;;;16.40;99.90;;;;;;5101219;27;20031;-76
2023/07/05 00:21:06;;;;;;;11.20;3.67;;;16.50;99.90;;;;;;5095708;28;20057;-75
2023/07/05 00:23:52;;;;;;;12.93;3.20;;;16.60;99.90;;;;;;5093827;27;20407;-75
2023/07/05 00:26:38;;;;;;;6.38;2.67;;;16.70;99.90;;;;;;5089374;27;20032;-75
2023/07/05 00:29:24;;;;;;;9.50;3.30;;;16.80;99.90;;;;;;5083870;28;20084;-76
2023/07/05 00:32:10;;;;;;;11.70;3.25;;;16.90;99.90;;;;;;5088442;27;20039;-76
2023/07/05 00:34:56;;;;;;;10.07;3.47;;;17.10;99.90;;;;;;5098141;28;20043;-76
2023/07/05 00:37:42;;;;;;;8.05;3.50;;;17.10;99.90;;;;;;5086968;28;20147;-76
2023/07/05 00:40:28;;;;;;;9.05;3.05;;;17.30;99.80;;;;;;5097907;27;20046;-76
2023/07/05 00:43:14;;;;;;;10.27;3.35;;;17.40;99.40;;;;;;5087943;27;20047;-76
2023/07/05 00:46:11;;;;;;;9.35;3.38;;;17.40;99.20;;;;;;5085772;27;20341;-75
2023/07/05 00:48:58;;;;;;;8.75;2.90;;;17.50;99.00;;;;;;5078309;28;20452;-75
2023/07/05 00:52:06;;;;;;;9.15;3.10;;;17.50;99.10;;;;;;5114995;27;20071;-75
2023/07/05 00:54:53;;;;;;;11.30;3.97;;;17.50;99.00;;;;;;5098374;27;20043;-76
2023/07/05 00:57:39;;;;;;;14.88;3.25;;;17.50;98.90;;;;;;5089950;28;20051;-74
2023/07/05 01:00:25;;;;;;;11.02;3.50;;;17.50;98.90;;;;;;5099977;27;20050;-77
2023/07/05 01:03:13;;;;;;;14.07;4.03;;;17.50;98.90;;;;;;5091069;27;20116;-75
2023/07/05 01:05:59;;;;;;;14.77;3.40;;;17.50;99.00;;;;;;5093591;28;20447;-75
2023/07/05 01:08:45;;;;;;;13.15;3.75;;;17.50;99.00;;;;;;5092729;28;20372;-75
2023/07/05 01:11:43;;;;;;;7.57;3.55;;;17.40;99.10;;;;;;5102619;27;20036;-76
2023/07/05 01:14:41;;;;;;;10.20;3.53;;;17.40;99.20;;;;;;5096868;28;20044;-75
2023/07/05 01:17:44;;;;;;;10.48;3.78;;;17.40;99.10;;;;;;5099812;28;20044;-75
2023/07/05 01:20:33;;;;;;;8.93;3.85;;;17.30;99.10;;;;;;5123528;27;20084;-75
2023/07/05 01:23:40;;;;;;;10.95;4.07;;;17.30;99.20;;;;;;5104198;28;20074;-75
2023/07/05 01:27:13;;;;;;;11.30;4.00;;;17.30;99.10;;;;;;5114443;28;20741;-75
2023/07/05 01:30:09;;;;;;;8.30;3.80;;;17.40;99.10;;;;;;5015573;28;20043;-76
2023/07/05 01:33:00;;;;;;;13.52;4.05;;;17.40;99.00;;;;;;5003798;28;20479;-75
2023/07/05 01:35:49;;;;;;;10.25;4.10;;;17.40;98.90;;;;;;5109314;27;20069;-75
2023/07/05 01:38:35;;;;;;;9.30;3.85;;;17.40;98.70;;;;;;5092763;28;20039;-76
2023/07/05 01:41:22;;;;;;;13.00;3.67;;;17.40;98.50;;;;;;5094292;28;20035;-75
2023/07/05 01:44:08;;;;;;;9.32;4.38;;;17.40;98.40;;;;;;5086665;27;20035;-75
2023/07/05 01:47:16;;;;;;;10.80;4.13;;;17.40;98.40;;;;;;5078737;28;20032;-76
2023/07/05 01:50:34;;;;;;;7.35;4.15;;;17.40;98.50;;;;;;5084758;28;20027;-75
2023/07/05 01:53:45;;;;;;;7.45;4.03;;;17.40;98.50;;;;;;5084255;28;20108;-75
2023/07/05 01:56:42;;;;;;;8.95;4.78;;;17.40;98.60;;;;;;5104132;28;20448;-76
2023/07/05 01:59:39;;;;;;;7.57;3.95;;;17.40;98.50;;;;;;5087030;27;20140;-76
2023/07/05 02:02:28;;;;;;;11.25;4.78;;;17.40;98.60;;;;;;5061648;28;20119;-77
2023/07/05 02:05:14;;;;;;;11.85;4.50;;;17.40;98.60;;;;;;5091858;28;20051;-76
2023/07/05 02:08:00;;;;;;;9.48;4.68;;;17.40;98.60;;;;;;5072461;28;20047;-76
2023/07/05 02:10:46;;;;;;;12.32;5.43;;;17.40;98.50;;;;;;5079499;28;20415;-77
2023/07/05 02:13:32;;;;;;;16.73;4.97;;;17.40;98.50;;;;;;5065199;28;20456;-77
2023/07/05 02:16:19;;;;;;;11.23;4.85;;;17.50;98.40;;;;;;5109944;28;20039;-77
2023/07/05 02:19:06;;;;;;;11.35;4.43;;;17.40;98.20;;;;;;5073432;28;20043;-78
2023/07/05 02:21:53;;;;;;;10.10;4.93;;;17.50;98.20;;;;;;5083336;28;20399;-78
2023/07/05 02:24:39;;;;;;;13.18;5.25;;;17.50;98.40;;;;;;5071482;28;20039;-78
2023/07/05 02:27:27;;;;;;;10.20;4.88;;;17.50;98.10;;;;;;5058513;28;20059;-78
2023/07/05 02:30:13;;;;;;;11.85;5.88;;;17.50;97.90;;;;;;5070974;28;20461;-78
2023/07/05 02:32:59;;;;;;;12.45;5.53;;;17.60;97.90;;;;;;5068035;28;20036;-78
2023/07/05 02:35:45;;;;;;;9.40;4.97;;;17.60;97.80;;;;;;5103139;28;20100;-77
2023/07/05 02:38:31;;;;;;;11.48;5.32;;;17.50;97.70;;;;;;5088778;28;20363;-76
2023/07/05 02:41:17;;;;;;;9.68;5.07;;;17.60;97.70;;;;;;5085501;28;20115;-75
2023/07/05 02:44:04;;;;;;;12.60;5.57;;;17.60;97.40;;;;;;5084195;28;20038;-75
2023/07/05 02:46:50;;;;;;;8.33;4.90;;;17.60;97.30;;;;;;5078690;28;20088;-77
2023/07/05 02:49:36;;;;;;;11.95;5.30;;;17.70;97.20;;;;;;5064962;28;20066;-76
2023/07/05 02:52:22;;;;;;;12.15;5.30;;;17.70;97.20;;;;;;5085426;28;20070;-77
2023/07/05 02:55:08;;;;;;;10.60;5.75;;;17.70;97.20;;;;;;5086971;28;20043;-77
2023/07/05 02:57:54;;;;;;;14.52;5.60;;;17.60;97.20;;;;;;5100356;28;20031;-77
2023/07/05 03:00:42;;;;;;;8.35;5.05;;;17.60;97.30;;;;;;5073924;28;20052;-77
2023/07/05 03:03:28;;;;;;;11.83;5.43;;;17.60;97.50;;;;;;5073603;28;20047;-78
2023/07/05 03:06:14;;;;;;;11.60;6.05;;;17.60;97.70;;;;;;5096346;28;20265;-77
2023/07/05 03:09:00;;;;;;;10.05;5.18;;;17.60;97.90;;;;;;5099971;28;20035;-76
2023/07/05 03:11:46;;;;;;;12.15;5.82;;;17.50;98.10;;;;;;5097105;28;20031;-79
2023/07/05 03:14:32;;;;;;;11.88;5.30;;;17.50;98.30;;;;;;5093325;28;20040;-76
2023/07/05 03:17:18;;;;;;;14.05;6.63;;;17.40;98.40;;;;;;5070083;28;20040;-77
2023/07/05 03:20:05;;;;;;;11.38;5.90;;;17.50;98.40;;;;;;5099580;28;20036;-79
2023/07/05 03:22:51;;;;;;;12.48;5.72;;;17.40;98.40;;;;;;5100929;28;20043;-77
2023/07/05 03:25:37;;;;;;;8.98;5.85;;;17.40;98.40;;;;;;5073747;28;20033;-78
2023/07/05 03:28:28;;;;;;;12.63;5.82;;;17.40;98.50;;;;;;5098020;28;20089;-80
2023/07/05 03:31:15;;;;;;;9.75;5.57;;;17.40;98.60;;;;;;5097350;28;20173;-77
2023/07/05 03:34:01;;;;;;;10.00;5.72;;;17.30;98.70;;;;;;5068168;28;20124;-78
2023/07/05 03:36:47;;;;;;;11.73;5.75;;;17.30;98.80;;;;;;5086267;28;20039;-76
2023/07/05 03:39:33;;;;;;;12.23;6.25;;;17.20;99.10;;;;;;5099798;28;20096;-78
2023/07/05 03:42:19;;;;;;;14.35;6.88;;;17.20;99.20;;;;;;5104379;28;20046;-78
2023/07/05 03:45:05;;;;;;;10.38;5.72;;;17.20;99.40;;;;;;5083309;28;20028;-77
2023/07/05 03:47:51;;;;;;;10.60;6.20;;;17.20;99.40;;;;;;5096692;28;20036;-78
2023/07/05 03:50:37;;;;;;;17.08;5.90;;;17.10;99.50;;;;;;5115532;28;20032;-76
2023/07/05 03:53:23;;;;;;;11.82;6.35;;;17.10;99.70;;;;;;5112764;28;20440;-77
2023/07/05 03:56:10;;;;;;;9.95;5.82;;;17.00;99.90;;;;;;5090113;28;20047;-77
2023/07/05 03:58:57;;;;;;;10.30;6.32;;;17.10;99.60;;;;;;5106884;28;20778;-78
2023/07/05 04:01:43;;;;;;;14.57;6.20;;;17.10;99.50;;;;;;5105444;28;20130;-77
2023/07/05 04:04:29;;;;;;;12.82;6.00;;;17.10;99.60;;;;;;5073394;28;20075;-77
2023/07/05 04:07:15;;;;;;;11.32;6.38;;;17.00;99.80;;;;;;5057557;28;20498;-78
2023/07/05 04:10:01;;;;;;;16.67;7.07;;;17.00;99.90;;;;;;5091159;28;20042;-78
2023/07/05 04:12:46;;;;;;;12.57;6.40;;;17.00;99.90;;;;;;5085760;28;20093;-77
2023/07/05 04:15:32;;;;;;;12.20;6.75;;;17.10;99.90;;;;;;5078868;28;20101;-78
2023/07/05 04:18:18;;;;;;;11.80;6.47;;;17.00;99.90;;;;;;5076349;28;20043;-77
2023/07/05 04:21:05;;;;;;;10.65;6.35;;;17.10;99.90;;;;;;5059791;28;20119;-77
2023/07/05 04:23:54;;;;;;;12.35;6.97;;;17.00;99.90;;;;;;5063867;28;20074;-77
2023/07/05 04:26:40;;;;;;;14.60;7.40;;;17.10;99.90;;;;;;5079543;28;20131;-77
2023/07/05 04:29:29;;;;;;;12.95;6.90;;;17.00;99.90;;;;;;5057589;28;20056;-77
2023/07/05 04:32:15;;;;;;;11.90;6.95;;;16.80;99.90;;;;;;5063416;28;20035;-77
2023/07/05 04:35:02;;;;;;;12.38;6.97;;;17.10;99.90;;;;;;5080966;28;20054;-77
2023/07/05 04:37:51;;;;;;;12.48;7.03;;;17.00;99.90;;;;;;5092162;28;20047;-77
2023/07/05 04:40:37;;;;;;;12.10;6.45;;;16.90;99.90;;;;;;5069145;28;20122;-78
2023/07/05 04:43:23;;;;;;;12.55;6.55;;;16.90;99.90;;;;;;5058542;28;20703;-78
2023/07/05 04:46:09;;;;;;;14.25;6.70;;;16.90;99.90;;;;;;5079322;28;20094;-78
2023/07/05 04:48:55;;;;;;;10.13;6.40;;;16.90;99.90;;;;;;5066440;28;20032;-76
2023/07/05 04:51:41;;;;;;;11.30;7.05;;;17.00;99.90;;;;;;5045694;28;20037;-78
2023/07/05 04:54:27;;;;;;;16.30;7.35;;;17.00;99.90;;;;;;5090026;28;20636;-77
2023/07/05 04:57:17;;;;;;;9.85;6.63;;;17.10;99.90;;;;;;5087797;28;20032;-75
2023/07/05 05:00:03;;;;;;;13.98;6.88;;;17.10;99.90;;;;;;5050187;28;20051;-76
2023/07/05 05:02:49;;;;;;;10.23;7.13;;;17.10;99.90;;;;;;5071943;28;20043;-75
2023/07/05 05:05:39;;;;;;;11.98;7.38;;;17.10;99.90;;;;;;5070641;28;20504;-76
2023/07/05 05:08:25;;;;;;;15.65;7.38;;;17.10;99.90;;;;;;5065241;28;20492;-76
2023/07/05 05:11:11;;;;;;;12.27;6.80;;;17.20;99.90;;;;;;5091848;28;20065;-75
2023/07/05 05:13:57;;;;;;;10.15;6.88;;;17.20;99.80;;;;;;5095168;28;20182;-76
2023/07/05 05:16:43;;;;;;;17.70;7.32;;;17.30;99.90;;;;;;5079667;28;20933;-75
2023/07/05 05:19:29;;;;;;;11.98;6.78;;;17.30;99.90;;;;;;5078970;28;20123;-75
2023/07/05 05:22:15;;;;;;;13.73;7.45;;;17.30;99.90;;;;;;5073047;28;20050;-76
2023/07/05 05:25:01;;;;;;;18.27;7.32;;;17.40;99.90;;;;;;5086401;28;20118;-75
2023/07/05 05:27:48;;;;;;;12.63;6.75;;;17.40;99.90;;;;;;5067902;28;20039;-76
2023/07/05 05:30:38;;;;;;;13.43;6.78;;;17.40;99.90;;;;;;5076093;28;20130;-76
2023/07/05 05:33:24;;;;;;;10.63;7.18;;;17.50;99.90;;;;;;5058783;28;20113;-76
2023/07/05 05:36:10;;;;;;;12.18;7.00;;;17.50;99.90;;;;;;5060811;28;20716;-78
2023/07/05 05:38:57;;;;;;;11.32;6.35;;;17.50;99.90;;;;;;5086015;28;20054;-78
2023/07/05 05:41:43;;;;;;;11.73;6.55;;;17.60;99.90;;;;;;5071480;28;20039;-78
2023/07/05 05:44:29;;;;;;;13.52;7.78;;;17.60;99.90;;;;;;5054884;28;20766;-79
2023/07/05 05:47:16;;;;;;;11.13;6.75;;;17.60;99.90;;;;;;5071797;28;20047;-79
2023/07/05 05:50:03;;;;;;;11.85;6.05;;;17.70;99.90;;;;;;5085065;28;20049;-79
2023/07/05 05:52:51;;;;;;;13.73;7.00;;;17.70;99.90;;;;;;5068814;28;20119;-79
2023/07/05 05:55:38;;;;;;;9.73;5.25;;;17.80;99.90;;;;;;5092777;28;20065;-78
2023/07/05 05:58:24;;;;;;;8.90;5.97;;;17.80;99.90;;;;;;5077173;28;20036;-78
2023/07/05 06:01:12;;;;;;;9.30;5.65;;;17.90;99.90;;;;;;5065111;28;20475;-77
2023/07/05 06:03:58;;;;;;;7.72;4.80;;;17.90;99.90;;;;;;5080684;28;20051;-77
2023/07/05 06:06:44;;;;;;;8.48;5.40;;;18.00;99.90;;;;;;5082648;28;20047;-77
2023/07/05 06:09:39;;;;;;;9.52;5.20;;;18.00;99.90;;;;;;5063486;28;20040;-78
2023/07/05 06:12:25;;;;;;;9.95;5.30;;;18.00;99.90;;;;;;5092631;28;20959;-78
2023/07/05 06:15:13;;;;;;;8.38;5.15;;;18.00;99.90;;;;;;5082015;28;20088;-78
2023/07/05 06:17:59;;;;;;;;;;;18.00;99.90;;;;;;5085286;28;20413;-78
2023/07/05 06:20:45;;;;;;;8.27;4.10;;;18.00;99.90;;;;;;5102242;28;20044;-79
2023/07/05 06:23:31;;;;;;;7.03;3.50;;;17.90;99.90;;;;;;5065858;28;20465;-80
2023/07/05 06:26:20;;;;;;;7.30;3.50;;;17.90;99.90;;;;;;5091800;28;20467;-80
2023/07/05 06:29:07;;;;;;;5.63;3.67;;;17.90;99.90;;;;;;5082688;28;20036;-79
2023/07/05 06:31:52;;;;;;;7.22;3.10;;;17.90;99.90;;;;;;5061445;28;20105;-78
2023/07/05 06:34:39;;;;;;;5.70;2.92;;;18.00;99.90;;;;;;5077661;28;20040;-77
2023/07/05 06:37:25;;;;;;;5.15;2.88;;;18.00;99.90;;;;;;5111384;28;20036;-76
2023/07/05 06:40:11;;;;;;;7.85;2.50;;;18.00;99.90;;;;;;5065076;28;20040;-76
2023/07/05 06:43:00;;;;;;;4.97;2.50;;;18.20;99.90;;;;;;5063423;28;20035;-76
2023/07/05 06:45:48;;;;;;;4.32;2.70;;;18.10;99.90;;;;;;5078385;28;20051;-76
2023/07/05 06:48:35;;;;;;;5.30;2.50;;;18.20;99.90;;;;;;5069859;28;20037;-76
2023/07/05 06:51:22;;;;;;;3.65;2.20;;;18.10;99.90;;;;;;5063705;28;20028;-76
2023/07/05 06:54:08;;;;;;;5.60;2.88;;;18.00;99.90;;;;;;5058884;28;20043;-75
2023/07/05 06:56:55;;;;;;;5.10;3.03;;;17.90;99.90;;;;;;5087320;28;20039;-76
2023/07/05 06:59:44;;;;;;;7.35;2.90;;;17.80;99.90;;;;;;5087231;28;20653;-75
2023/07/05 07:02:30;;;;;;;4.50;2.70;;;17.60;99.90;;;;;;5052041;28;20055;-75
2023/07/05 07:05:16;;;;;;;5.53;2.55;;;17.70;99.90;;;;;;5057726;28;20036;-76
2023/07/05 07:08:04;;;;;;;5.13;2.60;;;17.60;99.90;;;;;;5069623;28;20093;-76
2023/07/05 07:10:50;;;;;;;4.90;2.60;;;17.60;99.90;;;;;;5093764;28;20035;-77
2023/07/05 07:13:36;;;;;;;4.25;2.55;;;17.60;99.90;;;;;;5089743;28;20380;-76
2023/07/05 07:16:21;;;;;;;5.13;2.65;;;17.50;99.90;;;;;;5082493;28;20071;-76
2023/07/05 07:19:08;;;;;;;5.82;2.60;;;17.40;99.90;;;;;;5089542;28;20059;-77
2023/07/05 07:21:54;;;;;;;4.82;2.83;;;17.40;99.90;;;;;;5079886;28;20040;-76
2023/07/05 07:24:40;;;;;;;6.25;3.10;;;17.40;99.90;;;;;;5108850;28;20078;-78
2023/07/05 07:27:26;;;;;;;5.88;2.88;;;17.40;99.90;;;;;;5085788;28;20031;-76
2023/07/05 07:30:12;;;;;;;3.40;2.20;;;17.30;99.90;;;;;;5079389;28;20109;-77
2023/07/05 07:32:58;;;;;;;4.72;2.60;;;17.30;99.90;;;;;;5093020;28;20036;-77
2023/07/05 07:35:47;;;;;;;4.93;2.38;;;17.30;99.90;;;;;;5076264;28;20040;-77
2023/07/05 07:38:33;;;;;;;4.60;2.80;;;17.30;99.90;;;;;;5087930;28;20456;-77
2023/07/05 07:41:30;;;;;;;6.72;2.92;;;17.30;99.90;;;;;;5101646;28;20054;-77
2023/07/05 07:44:18;;;;;;;4.88;2.50;;;17.30;99.90;;;;;;5089680;28;20039;-77
2023/07/05 07:47:04;;;;;;;3.72;1.92;;;17.20;99.90;;;;;;5083242;28;20078;-77
2023/07/05 07:49:52;;;;;;;4.88;2.40;;;17.20;99.90;;;;;;5081555;28;20043;-77
2023/07/05 07:52:37;;;;;;;3.77;1.80;;;17.30;99.90;;;;;;5100252;28;20040;-76
2023/07/05 07:55:23;;;;;;;4.85;2.40;;;17.20;99.90;;;;;;5079867;28;20043;-77
2023/07/05 07:58:09;;;;;;;4.10;1.98;;;17.30;99.90;;;;;;5093462;28;20067;-77
2023/07/05 08:00:56;;;;;;;5.72;2.15;;;17.40;99.90;;;;;;5116225;28;20040;-77
2023/07/05 08:03:42;;;;;;;3.85;2.60;;;17.50;99.90;;;;;;5101488;28;20048;-78
2023/07/05 08:06:30;;;;;;;4.15;2.40;;;17.70;99.90;;;;;;5060886;28;20533;-75
2023/07/05 08:09:18;;;;;;;4.57;2.30;;;17.70;99.90;;;;;;5080567;28;20446;-77
2023/07/05 08:12:04;;;;;;;3.83;2.20;;;17.90;99.90;;;;;;5084346;28;20047;-77
2023/07/05 08:14:50;;;;;;;5.68;2.45;;;17.90;99.90;;;;;;5103009;28;20040;-77
2023/07/05 08:17:36;;;;;;;3.80;2.10;;;18.00;99.90;;;;;;5067282;28;20075;-77
2023/07/05 08:20:22;;;;;;;3.20;2.00;;;18.00;99.90;;;;;;5069606;28;20047;-77
2023/07/05 08:23:08;;;;;;;3.53;2.30;;;18.00;99.90;;;;;;5062766;28;20048;-77
2023/07/05 08:25:54;;;;;;;5.65;2.53;;;18.10;99.90;;;;;;5069122;28;20067;-77
2023/07/05 08:28:41;;;;;;;5.22;2.90;;;18.20;99.90;;;;;;5095554;28;20054;-77
2023/07/05 08:31:27;;;;;;;5.07;2.55;;;18.40;99.90;;;;;;5064445;28;20074;-77
2023/07/05 08:34:13;;;;;;;6.85;3.15;;;18.50;99.90;;;;;;5077063;28;20097;-77
2023/07/05 08:36:59;;;;;;;4.90;2.53;;;18.60;99.90;;;;;;5094590;28;20063;-77
2023/07/05 08:39:45;;;;;;;4.63;2.70;;;18.80;99.90;;;;;;5055554;28;20045;-77
2023/07/05 08:42:37;;;;;;;4.15;2.55;;;18.80;99.90;;;;;;5079325;28;20039;-77
2023/07/05 08:45:33;;;;;;;4.22;2.78;;;19.00;99.90;;;;;;5080297;28;20067;-77
2023/07/05 08:48:22;;;;;;;5.28;2.90;;;18.70;99.90;;;;;;5080811;28;20043;-76
2023/07/05 08:51:08;;;;;;;6.13;3.38;;;18.40;99.90;;;;;;5080384;28;20054;-77
2023/07/05 08:53:56;;;;;;;8.63;3.78;;;18.00;99.90;;;;;;5079183;28;20051;-77
2023/07/05 08:56:50;;;;;;;7.05;3.47;;;17.60;99.90;;;;;;5087631;28;20364;-76
2023/07/05 08:59:49;;;;;;;4.63;2.97;;;17.50;99.90;;;;;;5064186;28;20333;-76
2023/07/05 09:02:35;;;;;;;6.32;3.20;;;17.30;99.90;;;;;;5069429;28;20062;-77
2023/07/05 09:05:23;;;;;;;4.43;2.90;;;17.60;99.90;;;;;;5069192;28;20110;-77
2023/07/05 09:08:09;;;;;;;6.63;2.93;;;17.80;99.90;;;;;;5076914;28;20036;-76
2023/07/05 09:11:17;;;;;;;6.45;2.88;;;17.90;99.90;;;;;;5093797;28;20074;-77
2023/07/05 09:14:26;;;;;;;6.70;3.10;;;18.10;99.90;;;;;;5079045;28;20044;-76
2023/07/05 09:17:41;;;;;;;4.97;2.90;;;18.30;99.90;;;;;;5094459;28;20051;-77
2023/07/05 09:20:36;;;;;;;5.28;2.70;;;18.50;99.90;;;;;;5076915;28;20067;-77
2023/07/05 09:23:29;;;;;;;4.30;2.50;;;18.70;99.90;;;;;;5070325;28;20119;-76
2023/07/05 09:26:25;;;;;;;4.85;2.70;;;18.80;99.90;;;;;;5067358;28;20036;-76
2023/07/05 09:29:15;;;;;;;4.70;2.72;;;18.80;99.60;;;;;;5059976;28;20040;-76
2023/07/05 09:32:05;;;;;;;3.13;2.08;;;18.80;99.90;;;;;;5075351;28;20040;-76
2023/07/05 09:34:58;;;;;;;5.60;2.35;;;18.70;96.50;;;;;;5074847;28;20095;-75
2023/07/05 09:38:01;;;;;;;4.70;2.22;;;18.80;98.70;;;;;;5050634;28;20131;-75
2023/07/05 09:40:50;;;;;;;5.55;2.35;;;18.80;96.00;;;;;;5072104;28;20043;-76
2023/07/05 09:43:36;;;;;;;7.45;2.75;;;18.90;95.40;;;;;;5076248;28;20052;-75
2023/07/05 09:46:31;;;;;;;5.43;2.13;;;18.90;96.70;;;;;;5075381;28;20028;-75
2023/07/05 09:49:18;;;;;;;2.83;1.88;;;18.90;93.50;;;;;;5065498;28;20456;-76
2023/07/05 09:52:09;;;;;;;4.90;2.20;;;18.80;93.10;;;;;;5079465;28;20130;-76
2023/07/05 09:54:59;;;;;;;4.25;2.05;;;19.00;93.50;;;;;;5069070;28;20046;-76
2023/07/05 09:57:48;;;;;;;4.95;2.70;;;19.00;92.30;;;;;;5085116;28;20039;-78
2023/07/05 10:00:35;;;;;;;5.35;2.10;;;19.10;93.10;;;;;;5089103;28;20040;-76
2023/07/05 10:03:21;;;;;;;3.45;2.00;;;19.10;91.80;;;;;;5071820;28;20923;-78
2023/07/05 10:06:10;;;;;;;5.57;2.15;;;19.10;91.10;;;;;;5107273;28;20039;-77
2023/07/05 10:08:59;;;;;;;4.28;2.33;;;19.20;90.30;;;;;;5078977;28;20035;-76
2023/07/05 10:11:48;;;;;;;4.90;2.53;;;19.30;91.20;;;;;;5084143;28;20035;-77
2023/07/05 10:14:37;;;;;;;4.03;2.22;;;19.30;91.00;;;;;;5098008;28;20613;-75
2023/07/05 10:17:23;;;;;;;4.13;2.38;;;19.40;90.10;;;;;;5089820;28;20039;-78
2023/07/05 10:20:20;;;;;;;5.32;2.40;;;19.40;90.10;;;;;;5079660;28;20035;-76
2023/07/05 10:23:17;;;;;;;6.20;2.25;;;19.70;90.50;;;;;;5086590;28;20532;-76
2023/07/05 10:26:05;;;;;;;3.97;2.20;;;19.70;89.00;;;;;;5075299;28;20042;-74
2023/07/05 10:28:53;;;;;;;5.80;2.35;;;19.50;90.40;;;;;;5092015;28;20035;-75
2023/07/05 10:31:48;;;;;;;4.78;2.17;;;19.60;89.40;;;;;;5080424;28;20031;-76
2023/07/05 10:34:36;;;;;;;3.83;2.40;;;19.80;91.00;;;;;;5083456;28;20035;-75
2023/07/05 10:37:36;;;;;;;4.95;2.20;;;20.00;90.30;;;;;;5088887;28;20035;-76
2023/07/05 10:40:22;;;;;;;3.67;2.20;;;19.50;90.20;;;;;;5097952;28;20092;-75
2023/07/05 10:43:11;;;;;;;5.45;2.35;;;19.40;90.90;;;;;;5095469;27;20046;-76
2023/07/05 10:45:57;;;;;;;4.57;2.28;;;19.20;90.40;;;;;;5120864;27;20107;-78
2023/07/05 10:48:43;;;;;;;7.03;2.20;;;19.50;90.60;;;;;;5086830;27;20043;-74
2023/07/05 10:51:34;;;;;;;4.50;1.60;;;19.70;88.00;;;;;;5094555;27;20049;-77
2023/07/05 10:54:50;;;;;;;7.20;2.00;;;19.60;87.80;;;;;;5106385;27;20039;-76
2023/07/05 10:57:41;;;;;;;5.32;1.70;;;19.80;86.40;;;;;;5107218;27;20067;-76
2023/07/05 11:00:56;;;;;;;4.07;1.80;;;20.00;84.60;;;;;;5088766;27;20044;-78
2023/07/05 11:04:02;;;;;;;5.38;1.65;;;20.10;85.70;;;;;;5045051;27;20082;-77
2023/07/05 11:06:48;;;;;;;5.47;2.00;;;19.80;85.10;;;;;;5120055;27;20363;-76
2023/07/05 11:09:36;;;;;;;3.22;1.60;;;19.60;84.10;;;;;;5092900;27;20049;-76
2023/07/05 11:12:24;;;;;;;;;;;19.70;85.70;;;;;;5092468;27;20114;-76
2023/07/05 11:15:21;;;;;;;5.47;1.38;;;19.90;84.50;;;;;;5102418;27;19938;-76
2023/07/05 11:18:15;;;;;;;9.07;1.60;;;20.20;82.50;;;;;;5103025;27;20038;-76
2023/07/05 11:21:02;;;;;;;3.38;1.60;;;20.30;83.40;;;;;;5084532;27;20031;-75
2023/07/05 11:23:51;;;;;;;3.15;1.63;;;20.40;82.50;;;;;;5121349;27;20039;-76
2023/07/05 11:26:42;;;;;;;5.32;1.55;;;20.10;83.40;;;;;;5107952;27;20035;-76
2023/07/05 11:29:28;;;;;;;3.80;1.27;;;20.00;84.00;;;;;;5088234;27;20031;-77
2023/07/05 11:32:14;;;;;;;2.90;1.77;;;19.80;85.90;;;;;;5133508;27;20039;-77
2023/07/05 11:35:03;;;;;;;2.92;1.40;;;19.70;86.30;;;;;;5098257;27;20847;-77
2023/07/05 11:37:49;;;;;;;4.65;1.88;;;20.20;84.60;;;;;;5100856;27;20146;-76
2023/07/05 11:40:56;;;;;;;3.20;1.73;;;20.30;84.20;;;;;;5097728;27;20050;-76
2023/07/05 11:43:43;;;;;;;5.05;1.42;;;20.30;83.80;;;;;;5088676;27;20058;-75
2023/07/05 11:46:48;;;;;;;2.70;1.17;;;20.50;83.00;;;;;;5094190;27;20039;-76
2023/07/05 11:49:38;;;;;;;4.80;1.50;;;20.10;82.50;;;;;;5108083;27;20039;-75
2023/07/05 11:52:29;;;;;;;2.13;1.50;;;20.50;82.10;;;;;;5101806;27;20118;-76
2023/07/05 11:55:21;;;;;;;3.60;1.30;;;20.10;83.00;;;;;;5106008;27;20035;-77
2023/07/05 11:58:16;;;;;;;5.22;1.33;;;19.80;82.00;;;;;;5092781;27;20106;-76
2023/07/05 12:01:03;;;;;;;3.40;1.35;;;19.60;82.50;;;;;;5096608;27;20035;-76
2023/07/05 12:04:03;;;;;;;2.47;1.30;;;19.90;82.40;;;;;;5083157;28;20051;-76
2023/07/05 12:06:51;;;;;;;2.33;1.35;;;20.00;82.50;;;;;;5094160;28;20123;-76
2023/07/05 12:09:37;;;;;;;2.67;1.20;;;20.10;82.00;;;;;;5067498;27;20118;-76
2023/07/05 12:12:23;;;;;;;2.35;1.30;;;20.00;83.60;;;;;;5101467;27;20486;-76
2023/07/05 12:15:11;;;;;;;2.05;1.20;;;20.20;81.90;;;;;;5075839;27;20118;-76
2023/07/05 12:17:56;;;;;;;4.72;1.33;;;20.30;81.80;;;;;;5098241;27;20927;-76
2023/07/05 12:20:43;;;;;;;4.82;1.40;;;20.00;81.10;;;;;;5077474;27;20044;-76
2023/07/05 12:23:31;;;;;;;3.35;1.33;;;19.70;82.20;;;;;;5090339;27;20096;-75
2023/07/05 12:26:27;;;;;;;3.07;1.50;;;19.70;82.00;;;;;;5095166;27;20040;-76
2023/07/05 12:29:30;;;;;;;3.13;1.23;;;19.60;82.20;;;;;;5096128;27;20150;-76
2023/07/05 12:32:17;;;;;;;2.53;1.10;;;20.00;83.30;;;;;;5102457;27;20040;-76
2023/07/05 12:35:14;;;;;;;3.05;1.23;;;20.00;82.80;;;;;;5088375;28;20031;-77
2023/07/05 12:38:00;;;;;;;2.03;1.17;;;19.80;83.10;;;;;;5086116;27;20056;-76
2023/07/05 12:40:50;;;;;;;3.03;1.30;;;19.70;83.20;;;;;;5093195;27;20063;-76
2023/07/05 12:43:36;;;;;;;3.08;1.40;;;19.60;83.20;;;;;;5083198;27;20486;-76
2023/07/05 12:46:23;;;;;;;2.53;1.10;;;19.60;83.90;;;;;;5079479;28;20027;-76
2023/07/05 12:49:23;;;;;;;2.87;1.50;;;19.80;82.00;;;;;;5078777;28;20054;-77
2023/07/05 12:52:20;;;;;;;4.32;1.50;;;19.90;82.50;;;;;;5077389;27;20039;-76
2023/07/05 12:55:24;;;;;;;3.80;1.42;;;20.00;83.00;;;;;;5081276;28;20364;-76
2023/07/05 12:58:11;;;;;;;3.22;1.33;;;20.50;83.20;;;;;;5081973;27;20031;-76
2023/07/05 13:00:59;;;;;;;2.55;1.20;;;20.40;81.10;;;;;;5085602;28;20131;-77
2023/07/05 13:03:46;;;;;;;4.22;1.05;;;20.10;81.50;;;;;;5108880;27;20054;-76
2023/07/05 13:06:33;;;;;;;4.72;1.40;;;20.10;81.30;;;;;;5124911;27;20062;-75
2023/07/05 13:09:29;;;;;;;6.53;1.30;;;20.10;81.70;;;;;;5105450;27;20035;-77
2023/07/05 13:12:15;;;;;;;4.35;1.48;;;20.50;80.60;;;;;;5121891;27;20031;-75
2023/07/05 13:15:05;;;;;;;3.65;1.15;;;20.30;80.60;;;;;;5099095;27;22095;-77
2023/07/05 13:17:51;;;;;;;6.13;1.70;;;20.30;80.10;;;;;;5125489;27;20154;-76
2023/07/05 13:20:37;;;;;;;3.92;1.27;;;20.60;79.70;;;;;;5121875;27;20079;-76
2023/07/05 13:23:29;;;;;;;2.45;1.20;;;20.80;77.90;;;;;;5097424;27;20471;-77
2023/07/05 13:26:33;;;;;;;4.70;1.30;;;21.10;77.50;;;;;;5130916;27;20041;-77
2023/07/05 13:29:25;;;;;;;5.22;1.40;;;21.30;78.00;;;;;;5090998;27;20045;-76
2023/07/05 13:32:41;;;;;;;3.35;1.35;;;21.20;79.00;;;;;;5141061;27;20031;-76
2023/07/05 13:35:30;;;;;;;4.40;1.23;;;20.70;78.40;;;;;;5124027;27;20109;-80
2023/07/05 13:38:19;;;;;;;3.20;1.10;;;20.40;79.30;;;;;;5100977;27;20368;-77
2023/07/05 13:41:06;;;;;;;3.70;1.80;;;20.20;79.60;;;;;;5104665;27;20053;-77
2023/07/05 13:43:52;;;;;;;3.72;1.23;;;20.20;80.10;;;;;;5103743;27;20373;-76
2023/07/05 13:46:38;;;;;;;3.97;1.20;;;20.10;80.50;;;;;;5099600;27;20074;-75
2023/07/05 13:49:26;;;;;;;6.25;1.50;;;20.10;79.40;;;;;;5125845;27;20027;-74
2023/07/05 13:52:15;;;;;;;4.55;1.20;;;20.30;79.50;;;;;;5104922;27;20076;-76
2023/07/05 13:55:01;;;;;;;4.97;1.10;;;20.40;78.20;;;;;;5119114;27;20475;-75
2023/07/05 13:58:01;;;;;;;3.17;1.45;;;20.80;78.10;;;;;;5097456;27;20051;-74
2023/07/05 14:00:47;;;;;;;10.55;1.45;;;20.90;76.80;;;;;;5120908;27;20031;-77
2023/07/05 14:03:33;;;;;;;5.35;1.25;;;20.70;77.70;;;;;;5097808;27;20058;-76
2023/07/05 14:06:23;;;;;;;2.97;1.15;;;20.60;78.10;;;;;;5103443;27;20435;-76
2023/07/05 14:09:10;;;;;;;6.50;1.58;;;20.50;77.60;;;;;;5137958;27;20034;-76
2023/07/05 14:11:56;;;;;;;6.25;1.52;;;20.60;78.20;;;;;;5091099;27;20421;-75
2023/07/05 14:14:44;;;;;;;4.50;1.23;;;21.10;77.00;;;;;;5154119;27;20035;-75
2023/07/05 14:17:31;;;;;;;;;;;20.90;77.60;;;;;;5106057;27;20034;-76
2023/07/05 14:20:17;;;;;;;6.47;1.47;;;20.80;77.90;;;;;;5132030;27;19915;-76
2023/07/05 14:23:04;;;;;;;4.43;1.25;;;21.00;77.90;;;;;;5123115;27;20375;-77
2023/07/05 14:25:51;;;;;;;5.45;1.63;;;21.20;75.70;;;;;;5094671;27;20363;-76
2023/07/05 14:28:37;;;;;;;5.82;1.23;;;21.10;75.40;;;;;;5115595;27;20096;-76
2023/07/05 14:31:23;;;;;;;6.50;1.30;;;21.20;74.80;;;;;;5125976;27;20035;-76
2023/07/05 14:34:12;;;;;;;3.88;1.10;;;21.90;74.80;;;;;;5101417;27;20050;-77
2023/07/05 14:36:58;;;;;;;5.75;1.20;;;22.50;73.70;;;;;;5112897;27;20149;-78
2023/07/05 14:39:44;;;;;;;2.95;1.30;;;22.00;72.90;;;;;;5122652;27;20038;-77